sensor_id;sensor_type;location;lat;lon;timestamp;temperature;humidity
19567;DHT22;9930;49.240;8.548;2024-01-30T00:00:33;5.10;80.10
19567;DHT22;9930;49.240;8.548;2024-01-30T00:02:59;5.10;80.10
19567;DHT22;9930;49.240;8.548;2024-01-30T00:05:24;5.10;80.20
19567;DHT22;9930;49.240;8.548;2024-01-30T00:07:50;5.10;80.20
19567;DHT22;9930;49.240;8.548;2024-01-30T00:10:16;5.10;80.20
19567;DHT22;9930;49.240;8.548;2024-01-30T00:12:41;5.10;80.20
19567;DHT22;9930;49.240;8.548;2024-01-30T00:15:10;5.10;80.90
19567;DHT22;9930;49.240;8.548;2024-01-30T00:17:38;5.10;80.20
19567;DHT22;9930;49.240;8.548;2024-01-30T00:20:04;5.10;80.20
19567;DHT22;9930;49.240;8.548;2024-01-30T00:22:37;5.00;80.20
19567;DHT22;9930;49.240;8.548;2024-01-30T00:25:06;5.00;80.20
19567;DHT22;9930;49.240;8.548;2024-01-30T00:27:34;5.00;80.20
19567;DHT22;9930;49.240;8.548;2024-01-30T00:30:00;5.00;80.20
19567;DHT22;9930;49.240;8.548;2024-01-30T00:32:30;5.00;80.30
19567;DHT22;9930;49.240;8.548;2024-01-30T00:35:06;5.00;80.30
19567;DHT22;9930;49.240;8.548;2024-01-30T00:37:34;5.00;80.30
19567;DHT22;9930;49.240;8.548;2024-01-30T00:40:03;5.00;80.30
19567;DHT22;9930;49.240;8.548;2024-01-30T00:42:32;5.00;80.40
19567;DHT22;9930;49.240;8.548;2024-01-30T00:44:58;5.00;80.30
19567;DHT22;9930;49.240;8.548;2024-01-30T00:47:25;4.90;80.30
19567;DHT22;9930;49.240;8.548;2024-01-30T00:49:56;4.90;80.30
19567;DHT22;9930;49.240;8.548;2024-01-30T00:52:24;4.90;80.30
19567;DHT22;9930;49.240;8.548;2024-01-30T00:54:50;4.90;80.30
19567;DHT22;9930;49.240;8.548;2024-01-30T00:57:18;4.90;80.30
19567;DHT22;9930;49.240;8.548;2024-01-30T00:59:44;4.90;80.30
19567;DHT22;9930;49.240;8.548;2024-01-30T01:02:10;4.90;80.50
19567;DHT22;9930;49.240;8.548;2024-01-30T01:04:35;4.80;81.20
19567;DHT22;9930;49.240;8.548;2024-01-30T01:07:07;4.80;80.50
19567;DHT22;9930;49.240;8.548;2024-01-30T01:09:34;4.80;80.60
19567;DHT22;9930;49.240;8.548;2024-01-30T01:12:03;4.80;81.30
19567;DHT22;9930;49.240;8.548;2024-01-30T01:14:33;4.80;80.50
19567;DHT22;9930;49.240;8.548;2024-01-30T01:17:08;4.80;80.60
19567;DHT22;9930;49.240;8.548;2024-01-30T01:19:34;4.80;80.60
19567;DHT22;9930;49.240;8.548;2024-01-30T01:22:03;4.80;80.60
19567;DHT22;9930;49.240;8.548;2024-01-30T01:24:31;4.80;80.50
19567;DHT22;9930;49.240;8.548;2024-01-30T01:26:59;4.80;80.70
19567;DHT22;9930;49.240;8.548;2024-01-30T01:29:25;4.80;80.70
19567;DHT22;9930;49.240;8.548;2024-01-30T01:32:00;4.70;80.70
19567;DHT22;9930;49.240;8.548;2024-01-30T01:34:36;4.70;80.70
19567;DHT22;9930;49.240;8.548;2024-01-30T01:37:03;4.70;80.80
19567;DHT22;9930;49.240;8.548;2024-01-30T01:39:29;4.70;80.70
19567;DHT22;9930;49.240;8.548;2024-01-30T01:41:57;4.70;80.80
19567;DHT22;9930;49.240;8.548;2024-01-30T01:44:25;4.70;80.70
19567;DHT22;9930;49.240;8.548;2024-01-30T01:46:51;4.70;80.80
19567;DHT22;9930;49.240;8.548;2024-01-30T01:49:20;4.70;80.80
19567;DHT22;9930;49.240;8.548;2024-01-30T01:51:47;4.70;80.70
19567;DHT22;9930;49.240;8.548;2024-01-30T01:54:16;4.60;80.70
19567;DHT22;9930;49.240;8.548;2024-01-30T01:56:44;4.60;80.70
19567;DHT22;9930;49.240;8.548;2024-01-30T01:59:10;4.60;80.70
19567;DHT22;9930;49.240;8.548;2024-01-30T02:01:36;4.60;80.80
19567;DHT22;9930;49.240;8.548;2024-01-30T02:04:03;4.60;80.80
19567;DHT22;9930;49.240;8.548;2024-01-30T02:06:36;4.60;80.90
19567;DHT22;9930;49.240;8.548;2024-01-30T02:09:06;4.60;81.00
19567;DHT22;9930;49.240;8.548;2024-01-30T02:11:33;4.60;81.20
19567;DHT22;9930;49.240;8.548;2024-01-30T02:14:07;4.50;80.90
19567;DHT22;9930;49.240;8.548;2024-01-30T02:16:33;4.50;81.00
19567;DHT22;9930;49.240;8.548;2024-01-30T02:18:59;4.50;81.00
19567;DHT22;9930;49.240;8.548;2024-01-30T02:21:24;4.50;81.10
19567;DHT22;9930;49.240;8.548;2024-01-30T02:23:55;4.50;81.10
19567;DHT22;9930;49.240;8.548;2024-01-30T02:26:28;4.60;81.20
19567;DHT22;9930;49.240;8.548;2024-01-30T02:28:54;4.50;81.20
19567;DHT22;9930;49.240;8.548;2024-01-30T02:31:22;4.50;81.20
19567;DHT22;9930;49.240;8.548;2024-01-30T02:33:50;4.50;81.20
19567;DHT22;9930;49.240;8.548;2024-01-30T02:36:18;4.50;81.20
19567;DHT22;9930;49.240;8.548;2024-01-30T02:38:44;4.50;81.20
19567;DHT22;9930;49.240;8.548;2024-01-30T02:41:11;4.50;81.20
19567;DHT22;9930;49.240;8.548;2024-01-30T02:43:37;4.50;81.20
19567;DHT22;9930;49.240;8.548;2024-01-30T02:46:04;4.50;81.20
19567;DHT22;9930;49.240;8.548;2024-01-30T02:48:35;4.40;81.10
19567;DHT22;9930;49.240;8.548;2024-01-30T02:51:06;4.40;81.10
19567;DHT22;9930;49.240;8.548;2024-01-30T02:53:35;4.40;81.20
19567;DHT22;9930;49.240;8.548;2024-01-30T02:56:05;4.40;81.20
19567;DHT22;9930;49.240;8.548;2024-01-30T02:58:39;4.40;81.20
19567;DHT22;9930;49.240;8.548;2024-01-30T03:01:05;4.40;81.20
19567;DHT22;9930;49.240;8.548;2024-01-30T03:03:33;4.40;81.20
19567;DHT22;9930;49.240;8.548;2024-01-30T03:06:03;4.30;81.20
19567;DHT22;9930;49.240;8.548;2024-01-30T03:08:29;4.30;81.20
19567;DHT22;9930;49.240;8.548;2024-01-30T03:10:54;4.30;81.30
19567;DHT22;9930;49.240;8.548;2024-01-30T03:13:22;4.30;81.40
19567;DHT22;9930;49.240;8.548;2024-01-30T03:15:55;4.30;81.40
19567;DHT22;9930;49.240;8.548;2024-01-30T03:18:23;4.30;81.50
19567;DHT22;9930;49.240;8.548;2024-01-30T03:20:48;4.30;81.50
19567;DHT22;9930;49.240;8.548;2024-01-30T03:23:14;4.30;81.60
19567;DHT22;9930;49.240;8.548;2024-01-30T03:25:40;4.30;81.70
19567;DHT22;9930;49.240;8.548;2024-01-30T03:28:06;4.30;81.80
19567;DHT22;9930;49.240;8.548;2024-01-30T03:30:34;4.30;81.80
19567;DHT22;9930;49.240;8.548;2024-01-30T03:33:03;4.30;81.70
19567;DHT22;9930;49.240;8.548;2024-01-30T03:35:29;4.30;81.80
19567;DHT22;9930;49.240;8.548;2024-01-30T03:37:55;4.30;81.80
19567;DHT22;9930;49.240;8.548;2024-01-30T03:40:25;4.30;81.80
19567;DHT22;9930;49.240;8.548;2024-01-30T03:42:50;4.30;81.90
19567;DHT22;9930;49.240;8.548;2024-01-30T03:45:16;4.30;81.80
19567;DHT22;9930;49.240;8.548;2024-01-30T03:47:44;4.30;81.90
19567;DHT22;9930;49.240;8.548;2024-01-30T03:50:12;4.30;81.90
19567;DHT22;9930;49.240;8.548;2024-01-30T03:52:43;4.30;81.90
19567;DHT22;9930;49.240;8.548;2024-01-30T03:55:08;4.30;81.90
19567;DHT22;9930;49.240;8.548;2024-01-30T03:57:36;4.30;82.00
19567;DHT22;9930;49.240;8.548;2024-01-30T04:00:03;4.30;82.00
19567;DHT22;9930;49.240;8.548;2024-01-30T04:02:30;4.30;82.00
19567;DHT22;9930;49.240;8.548;2024-01-30T04:04:56;4.30;82.00
19567;DHT22;9930;49.240;8.548;2024-01-30T04:07:21;4.30;82.00
19567;DHT22;9930;49.240;8.548;2024-01-30T04:09:49;4.30;82.10
19567;DHT22;9930;49.240;8.548;2024-01-30T04:12:15;4.30;82.10
19567;DHT22;9930;49.240;8.548;2024-01-30T04:14:43;4.20;82.00
19567;DHT22;9930;49.240;8.548;2024-01-30T04:17:09;4.20;82.00
19567;DHT22;9930;49.240;8.548;2024-01-30T04:19:40;4.20;82.10
19567;DHT22;9930;49.240;8.548;2024-01-30T04:22:08;4.20;82.10
19567;DHT22;9930;49.240;8.548;2024-01-30T04:24:34;4.20;82.10
19567;DHT22;9930;49.240;8.548;2024-01-30T04:27:06;4.20;82.10
19567;DHT22;9930;49.240;8.548;2024-01-30T04:29:33;4.20;82.10
19567;DHT22;9930;49.240;8.548;2024-01-30T04:31:59;4.20;82.20
19567;DHT22;9930;49.240;8.548;2024-01-30T04:34:25;4.20;82.10
19567;DHT22;9930;49.240;8.548;2024-01-30T04:36:51;4.20;82.20
19567;DHT22;9930;49.240;8.548;2024-01-30T04:39:19;4.20;82.10
19567;DHT22;9930;49.240;8.548;2024-01-30T04:41:47;4.20;82.10
19567;DHT22;9930;49.240;8.548;2024-01-30T04:44:13;4.20;82.20
19567;DHT22;9930;49.240;8.548;2024-01-30T04:46:40;4.20;82.30
19567;DHT22;9930;49.240;8.548;2024-01-30T04:49:05;4.20;82.30
19567;DHT22;9930;49.240;8.548;2024-01-30T04:51:33;4.20;82.40
19567;DHT22;9930;49.240;8.548;2024-01-30T04:54:05;4.20;82.40
19567;DHT22;9930;49.240;8.548;2024-01-30T04:56:34;4.20;82.40
19567;DHT22;9930;49.240;8.548;2024-01-30T04:59:03;4.10;82.30
19567;DHT22;9930;49.240;8.548;2024-01-30T05:01:29;4.20;82.40
19567;DHT22;9930;49.240;8.548;2024-01-30T05:03:58;4.20;82.40
19567;DHT22;9930;49.240;8.548;2024-01-30T05:06:27;4.20;82.40
19567;DHT22;9930;49.240;8.548;2024-01-30T05:08:55;4.20;82.40
19567;DHT22;9930;49.240;8.548;2024-01-30T05:11:21;4.20;82.50
19567;DHT22;9930;49.240;8.548;2024-01-30T05:13:49;4.10;82.50
19567;DHT22;9930;49.240;8.548;2024-01-30T05:16:14;4.10;82.50
19567;DHT22;9930;49.240;8.548;2024-01-30T05:18:43;4.10;82.50
19567;DHT22;9930;49.240;8.548;2024-01-30T05:21:10;4.10;82.50
19567;DHT22;9930;49.240;8.548;2024-01-30T05:23:36;4.10;82.60
19567;DHT22;9930;49.240;8.548;2024-01-30T05:26:03;4.10;82.60
19567;DHT22;9930;49.240;8.548;2024-01-30T05:28:34;4.10;82.60
19567;DHT22;9930;49.240;8.548;2024-01-30T05:31:00;4.10;82.60
19567;DHT22;9930;49.240;8.548;2024-01-30T05:33:26;4.10;82.60
19567;DHT22;9930;49.240;8.548;2024-01-30T05:35:53;4.10;82.70
19567;DHT22;9930;49.240;8.548;2024-01-30T05:38:20;4.20;82.70
19567;DHT22;9930;49.240;8.548;2024-01-30T05:40:46;4.10;82.70
19567;DHT22;9930;49.240;8.548;2024-01-30T05:43:12;4.10;82.70
19567;DHT22;9930;49.240;8.548;2024-01-30T05:45:40;4.10;82.80
19567;DHT22;9930;49.240;8.548;2024-01-30T05:48:05;4.10;82.80
19567;DHT22;9930;49.240;8.548;2024-01-30T05:50:33;4.10;82.70
19567;DHT22;9930;49.240;8.548;2024-01-30T05:52:59;4.10;83.40
19567;DHT22;9930;49.240;8.548;2024-01-30T05:55:25;4.20;82.80
19567;DHT22;9930;49.240;8.548;2024-01-30T05:57:50;4.10;82.80
19567;DHT22;9930;49.240;8.548;2024-01-30T06:00:18;4.10;82.80
19567;DHT22;9930;49.240;8.548;2024-01-30T06:02:43;4.10;82.90
19567;DHT22;9930;49.240;8.548;2024-01-30T06:05:09;4.10;82.90
19567;DHT22;9930;49.240;8.548;2024-01-30T06:07:35;4.10;82.90
19567;DHT22;9930;49.240;8.548;2024-01-30T06:10:05;4.10;83.00
19567;DHT22;9930;49.240;8.548;2024-01-30T06:12:39;4.10;83.60
19567;DHT22;9930;49.240;8.548;2024-01-30T06:15:05;4.10;83.00
19567;DHT22;9930;49.240;8.548;2024-01-30T06:17:33;4.10;83.00
19567;DHT22;9930;49.240;8.548;2024-01-30T06:19:59;4.10;83.00
19567;DHT22;9930;49.240;8.548;2024-01-30T06:22:27;4.10;83.00
19567;DHT22;9930;49.240;8.548;2024-01-30T06:24:53;4.10;83.10
19567;DHT22;9930;49.240;8.548;2024-01-30T06:27:21;4.10;83.10
19567;DHT22;9930;49.240;8.548;2024-01-30T06:29:49;4.10;83.20
19567;DHT22;9930;49.240;8.548;2024-01-30T06:32:19;4.10;83.20
19567;DHT22;9930;49.240;8.548;2024-01-30T06:34:47;4.10;83.10
19567;DHT22;9930;49.240;8.548;2024-01-30T06:37:13;4.10;83.10
19567;DHT22;9930;49.240;8.548;2024-01-30T06:39:40;4.10;83.20
19567;DHT22;9930;49.240;8.548;2024-01-30T06:42:06;4.10;83.10
19567;DHT22;9930;49.240;8.548;2024-01-30T06:44:35;4.10;83.20
19567;DHT22;9930;49.240;8.548;2024-01-30T06:47:01;4.10;83.20
19567;DHT22;9930;49.240;8.548;2024-01-30T06:49:30;4.10;83.20
19567;DHT22;9930;49.240;8.548;2024-01-30T06:51:58;4.10;83.20
19567;DHT22;9930;49.240;8.548;2024-01-30T06:54:24;4.00;83.20
19567;DHT22;9930;49.240;8.548;2024-01-30T06:56:51;4.10;83.20
19567;DHT22;9930;49.240;8.548;2024-01-30T06:59:21;4.10;83.20
19567;DHT22;9930;49.240;8.548;2024-01-30T07:01:47;4.00;83.20
19567;DHT22;9930;49.240;8.548;2024-01-30T07:04:12;4.10;83.30
19567;DHT22;9930;49.240;8.548;2024-01-30T07:06:38;4.10;83.40
19567;DHT22;9930;49.240;8.548;2024-01-30T07:09:04;4.10;83.40
19567;DHT22;9930;49.240;8.548;2024-01-30T07:11:34;4.10;83.40
19567;DHT22;9930;49.240;8.548;2024-01-30T07:14:07;4.10;83.40
19567;DHT22;9930;49.240;8.548;2024-01-30T07:16:36;4.10;83.50
19567;DHT22;9930;49.240;8.548;2024-01-30T07:19:04;4.10;83.50
19567;DHT22;9930;49.240;8.548;2024-01-30T07:21:29;4.10;83.50
19567;DHT22;9930;49.240;8.548;2024-01-30T07:23:59;4.10;83.60
19567;DHT22;9930;49.240;8.548;2024-01-30T07:26:24;4.10;83.60
19567;DHT22;9930;49.240;8.548;2024-01-30T07:28:52;4.10;83.60
19567;DHT22;9930;49.240;8.548;2024-01-30T07:31:18;4.10;83.60
19567;DHT22;9930;49.240;8.548;2024-01-30T07:33:46;4.10;83.70
19567;DHT22;9930;49.240;8.548;2024-01-30T07:36:12;4.10;83.70
19567;DHT22;9930;49.240;8.548;2024-01-30T07:38:39;4.20;83.70
19567;DHT22;9930;49.240;8.548;2024-01-30T07:41:07;4.20;83.70
19567;DHT22;9930;49.240;8.548;2024-01-30T07:43:39;4.20;83.80
19567;DHT22;9930;49.240;8.548;2024-01-30T07:46:05;4.20;83.80
19567;DHT22;9930;49.240;8.548;2024-01-30T07:48:33;4.20;83.70
19567;DHT22;9930;49.240;8.548;2024-01-30T07:50:59;4.20;83.80
19567;DHT22;9930;49.240;8.548;2024-01-30T07:53:25;4.30;83.90
19567;DHT22;9930;49.240;8.548;2024-01-30T07:55:52;4.30;83.90
19567;DHT22;9930;49.240;8.548;2024-01-30T07:58:18;4.30;83.80
19567;DHT22;9930;49.240;8.548;2024-01-30T08:00:44;4.40;84.00
19567;DHT22;9930;49.240;8.548;2024-01-30T08:03:10;4.40;84.10
19567;DHT22;9930;49.240;8.548;2024-01-30T08:05:36;4.40;84.20
19567;DHT22;9930;49.240;8.548;2024-01-30T08:08:09;4.50;84.30
19567;DHT22;9930;49.240;8.548;2024-01-30T08:10:35;4.50;84.40
19567;DHT22;9930;49.240;8.548;2024-01-30T08:13:03;4.60;84.50
19567;DHT22;9930;49.240;8.548;2024-01-30T08:15:37;4.60;84.50
19567;DHT22;9930;49.240;8.548;2024-01-30T08:18:06;4.70;84.50
19567;DHT22;9930;49.240;8.548;2024-01-30T08:20:36;4.70;84.60
19567;DHT22;9930;49.240;8.548;2024-01-30T08:23:04;4.80;84.70
19567;DHT22;9930;49.240;8.548;2024-01-30T08:25:30;4.90;84.80
19567;DHT22;9930;49.240;8.548;2024-01-30T08:28:09;5.00;84.80
19567;DHT22;9930;49.240;8.548;2024-01-30T08:30:36;5.00;85.00
19567;DHT22;9930;49.240;8.548;2024-01-30T08:33:05;5.10;84.80
19567;DHT22;9930;49.240;8.548;2024-01-30T08:35:30;5.20;84.90
19567;DHT22;9930;49.240;8.548;2024-01-30T08:37:59;5.20;84.80
19567;DHT22;9930;49.240;8.548;2024-01-30T08:40:25;5.30;84.80
19567;DHT22;9930;49.240;8.548;2024-01-30T08:42:51;5.40;84.90
19567;DHT22;9930;49.240;8.548;2024-01-30T08:45:16;5.50;85.00
19567;DHT22;9930;49.240;8.548;2024-01-30T08:47:42;5.60;84.90
19567;DHT22;9930;49.240;8.548;2024-01-30T08:50:10;5.60;84.90
19567;DHT22;9930;49.240;8.548;2024-01-30T08:52:36;5.70;84.90
19567;DHT22;9930;49.240;8.548;2024-01-30T08:55:09;5.70;84.80
19567;DHT22;9930;49.240;8.548;2024-01-30T08:57:35;5.80;84.70
19567;DHT22;9930;49.240;8.548;2024-01-30T09:00:06;5.90;84.70
19567;DHT22;9930;49.240;8.548;2024-01-30T09:02:34;5.90;84.60
19567;DHT22;9930;49.240;8.548;2024-01-30T09:05:01;6.00;84.70
19567;DHT22;9930;49.240;8.548;2024-01-30T09:07:29;6.10;84.60
19567;DHT22;9930;49.240;8.548;2024-01-30T09:09:55;6.10;84.40
19567;DHT22;9930;49.240;8.548;2024-01-30T09:12:23;6.20;84.40
19567;DHT22;9930;49.240;8.548;2024-01-30T09:14:51;6.20;84.30
19567;DHT22;9930;49.240;8.548;2024-01-30T09:17:17;6.30;84.30
19567;DHT22;9930;49.240;8.548;2024-01-30T09:19:45;6.30;84.20
19567;DHT22;9930;49.240;8.548;2024-01-30T09:22:11;6.30;84.20
19567;DHT22;9930;49.240;8.548;2024-01-30T09:24:40;6.40;84.20
19567;DHT22;9930;49.240;8.548;2024-01-30T09:27:08;6.40;84.20
19567;DHT22;9930;49.240;8.548;2024-01-30T09:29:34;6.50;84.20
19567;DHT22;9930;49.240;8.548;2024-01-30T09:32:04;6.50;84.10
19567;DHT22;9930;49.240;8.548;2024-01-30T09:34:35;6.50;84.20
19567;DHT22;9930;49.240;8.548;2024-01-30T09:37:00;6.60;84.10
19567;DHT22;9930;49.240;8.548;2024-01-30T09:39:29;6.60;84.10
19567;DHT22;9930;49.240;8.548;2024-01-30T09:42:18;6.70;84.30
19567;DHT22;9930;49.240;8.548;2024-01-30T09:44:51;6.70;84.40
19567;DHT22;9930;49.240;8.548;2024-01-30T09:47:20;6.80;84.40
19567;DHT22;9930;49.240;8.548;2024-01-30T09:49:46;6.90;84.50
19567;DHT22;9930;49.240;8.548;2024-01-30T09:52:14;6.90;84.50
19567;DHT22;9930;49.240;8.548;2024-01-30T09:54:45;7.00;84.60
19567;DHT22;9930;49.240;8.548;2024-01-30T09:57:11;7.10;84.70
19567;DHT22;9930;49.240;8.548;2024-01-30T09:59:42;7.20;84.70
19567;DHT22;9930;49.240;8.548;2024-01-30T10:02:11;7.30;84.60
19567;DHT22;9930;49.240;8.548;2024-01-30T10:04:36;7.40;84.80
19567;DHT22;9930;49.240;8.548;2024-01-30T10:07:05;7.50;84.70
19567;DHT22;9930;49.240;8.548;2024-01-30T10:09:36;7.50;84.60
19567;DHT22;9930;49.240;8.548;2024-01-30T10:12:09;7.60;84.60
19567;DHT22;9930;49.240;8.548;2024-01-30T10:14:39;7.80;84.60
19567;DHT22;9930;49.240;8.548;2024-01-30T10:17:08;7.80;84.40
19567;DHT22;9930;49.240;8.548;2024-01-30T10:19:37;7.90;84.20
19567;DHT22;9930;49.240;8.548;2024-01-30T10:22:09;7.90;84.00
19567;DHT22;9930;49.240;8.548;2024-01-30T10:24:35;8.00;83.90
19567;DHT22;9930;49.240;8.548;2024-01-30T10:27:05;8.10;83.80
19567;DHT22;9930;49.240;8.548;2024-01-30T10:29:33;8.10;83.70
19567;DHT22;9930;49.240;8.548;2024-01-30T10:32:06;8.20;83.80
19567;DHT22;9930;49.240;8.548;2024-01-30T10:34:35;8.30;83.80
19567;DHT22;9930;49.240;8.548;2024-01-30T10:37:10;8.30;83.70
19567;DHT22;9930;49.240;8.548;2024-01-30T10:39:41;8.40;83.60
19567;DHT22;9930;49.240;8.548;2024-01-30T10:42:13;8.50;83.60
19567;DHT22;9930;49.240;8.548;2024-01-30T10:45:13;8.50;83.50
19567;DHT22;9930;49.240;8.548;2024-01-30T10:47:48;8.50;83.40
19567;DHT22;9930;49.240;8.548;2024-01-30T10:50:18;8.60;83.40
19567;DHT22;9930;49.240;8.548;2024-01-30T10:52:45;8.70;83.30
19567;DHT22;9930;49.240;8.548;2024-01-30T10:55:12;8.70;83.30
19567;DHT22;9930;49.240;8.548;2024-01-30T10:57:40;8.80;83.30
19567;DHT22;9930;49.240;8.548;2024-01-30T11:00:08;8.80;83.20
19567;DHT22;9930;49.240;8.548;2024-01-30T11:02:45;8.90;83.30
19567;DHT22;9930;49.240;8.548;2024-01-30T11:05:12;8.90;83.10
19567;DHT22;9930;49.240;8.548;2024-01-30T11:07:41;9.00;83.20
19567;DHT22;9930;49.240;8.548;2024-01-30T11:10:07;9.00;83.10
19567;DHT22;9930;49.240;8.548;2024-01-30T11:12:38;9.10;83.10
19567;DHT22;9930;49.240;8.548;2024-01-30T11:15:08;9.10;83.10
19567;DHT22;9930;49.240;8.548;2024-01-30T11:20:29;9.20;83.20
19567;DHT22;9930;49.240;8.548;2024-01-30T11:22:57;9.30;83.30
19567;DHT22;9930;49.240;8.548;2024-01-30T11:25:24;9.50;83.70
19567;DHT22;9930;49.240;8.548;2024-01-30T11:27:55;9.60;83.50
19567;DHT22;9930;49.240;8.548;2024-01-30T11:30:29;9.80;83.40
19567;DHT22;9930;49.240;8.548;2024-01-30T11:35:35;9.90;83.90
19567;DHT22;9930;49.240;8.548;2024-01-30T11:38:04;10.10;83.40
19567;DHT22;9930;49.240;8.548;2024-01-30T11:40:36;10.20;83.20
19567;DHT22;9930;49.240;8.548;2024-01-30T11:43:06;10.30;82.70
19567;DHT22;9930;49.240;8.548;2024-01-30T11:45:34;10.40;82.40
19567;DHT22;9930;49.240;8.548;2024-01-30T11:48:05;10.50;82.40
19567;DHT22;9930;49.240;8.548;2024-01-30T11:50:34;10.60;82.40
19567;DHT22;9930;49.240;8.548;2024-01-30T11:53:00;10.70;82.20
19567;DHT22;9930;49.240;8.548;2024-01-30T11:55:30;10.80;82.20
19567;DHT22;9930;49.240;8.548;2024-01-30T11:57:57;10.90;82.00
19567;DHT22;9930;49.240;8.548;2024-01-30T12:00:26;11.00;81.70
19567;DHT22;9930;49.240;8.548;2024-01-30T12:02:56;11.00;81.50
19567;DHT22;9930;49.240;8.548;2024-01-30T12:05:28;11.20;81.60
19567;DHT22;9930;49.240;8.548;2024-01-30T12:07:56;11.20;81.20
19567;DHT22;9930;49.240;8.548;2024-01-30T12:10:25;11.30;81.00
19567;DHT22;9930;49.240;8.548;2024-01-30T12:12:52;11.40;80.90
19567;DHT22;9930;49.240;8.548;2024-01-30T12:15:21;11.40;80.80
19567;DHT22;9930;49.240;8.548;2024-01-30T12:17:48;11.50;80.30
19567;DHT22;9930;49.240;8.548;2024-01-30T12:20:15;11.60;80.30
19567;DHT22;9930;49.240;8.548;2024-01-30T12:22:47;11.60;80.20
19567;DHT22;9930;49.240;8.548;2024-01-30T12:25:15;11.70;80.30
19567;DHT22;9930;49.240;8.548;2024-01-30T12:27:47;11.70;79.90
19567;DHT22;9930;49.240;8.548;2024-01-30T12:30:20;11.80;79.70
19567;DHT22;9930;49.240;8.548;2024-01-30T12:32:48;11.80;79.60
19567;DHT22;9930;49.240;8.548;2024-01-30T12:35:19;11.90;79.60
19567;DHT22;9930;49.240;8.548;2024-01-30T12:37:46;11.90;79.50
19567;DHT22;9930;49.240;8.548;2024-01-30T12:40:16;12.00;79.40
19567;DHT22;9930;49.240;8.548;2024-01-30T12:42:49;12.00;79.20
19567;DHT22;9930;49.240;8.548;2024-01-30T12:45:15;12.10;79.30
19567;DHT22;9930;49.240;8.548;2024-01-30T12:47:41;12.20;79.20
19567;DHT22;9930;49.240;8.548;2024-01-30T12:50:07;12.20;78.90
19567;DHT22;9930;49.240;8.548;2024-01-30T12:52:35;12.30;78.80
19567;DHT22;9930;49.240;8.548;2024-01-30T12:55:04;12.30;78.60
19567;DHT22;9930;49.240;8.548;2024-01-30T12:57:36;12.30;78.40
19567;DHT22;9930;49.240;8.548;2024-01-30T13:00:05;12.40;78.30
19567;DHT22;9930;49.240;8.548;2024-01-30T13:02:35;12.40;78.20
19567;DHT22;9930;49.240;8.548;2024-01-30T13:05:05;12.40;78.30
19567;DHT22;9930;49.240;8.548;2024-01-30T13:07:31;12.40;77.90
19567;DHT22;9930;49.240;8.548;2024-01-30T13:10:03;12.50;78.10
19567;DHT22;9930;49.240;8.548;2024-01-30T13:12:30;12.50;77.80
19567;DHT22;9930;49.240;8.548;2024-01-30T13:14:58;12.60;77.70
19567;DHT22;9930;49.240;8.548;2024-01-30T13:17:27;12.60;77.60
19567;DHT22;9930;49.240;8.548;2024-01-30T13:19:53;12.60;77.50
19567;DHT22;9930;49.240;8.548;2024-01-30T13:22:21;12.70;77.60
19567;DHT22;9930;49.240;8.548;2024-01-30T13:24:50;12.70;77.40
19567;DHT22;9930;49.240;8.548;2024-01-30T13:27:18;12.70;77.20
19567;DHT22;9930;49.240;8.548;2024-01-30T13:29:43;12.70;77.20
19567;DHT22;9930;49.240;8.548;2024-01-30T13:32:09;12.80;76.90
19567;DHT22;9930;49.240;8.548;2024-01-30T13:34:36;12.80;77.00
19567;DHT22;9930;49.240;8.548;2024-01-30T13:37:03;12.80;76.80
19567;DHT22;9930;49.240;8.548;2024-01-30T13:39:30;12.80;76.60
19567;DHT22;9930;49.240;8.548;2024-01-30T13:41:58;12.80;76.60
19567;DHT22;9930;49.240;8.548;2024-01-30T13:44:26;12.70;76.40
19567;DHT22;9930;49.240;8.548;2024-01-30T13:46:55;12.80;76.40
19567;DHT22;9930;49.240;8.548;2024-01-30T13:49:22;12.70;76.20
19567;DHT22;9930;49.240;8.548;2024-01-30T13:51:50;12.70;76.40
19567;DHT22;9930;49.240;8.548;2024-01-30T13:54:16;12.70;76.20
19567;DHT22;9930;49.240;8.548;2024-01-30T13:56:44;12.70;76.20
19567;DHT22;9930;49.240;8.548;2024-01-30T13:59:09;12.70;76.20
19567;DHT22;9930;49.240;8.548;2024-01-30T14:01:36;12.70;76.30
19567;DHT22;9930;49.240;8.548;2024-01-30T14:04:03;12.70;76.20
19567;DHT22;9930;49.240;8.548;2024-01-30T14:06:29;12.60;76.10
19567;DHT22;9930;49.240;8.548;2024-01-30T14:08:55;12.70;76.30
19567;DHT22;9930;49.240;8.548;2024-01-30T14:11:24;12.70;76.30
19567;DHT22;9930;49.240;8.548;2024-01-30T14:13:50;12.70;76.20
19567;DHT22;9930;49.240;8.548;2024-01-30T14:16:18;12.70;76.10
19567;DHT22;9930;49.240;8.548;2024-01-30T14:18:43;12.70;76.10
19567;DHT22;9930;49.240;8.548;2024-01-30T14:21:11;12.70;76.10
19567;DHT22;9930;49.240;8.548;2024-01-30T14:23:40;12.70;76.10
19567;DHT22;9930;49.240;8.548;2024-01-30T14:26:08;12.70;76.00
19567;DHT22;9930;49.240;8.548;2024-01-30T14:28:34;12.70;76.00
19567;DHT22;9930;49.240;8.548;2024-01-30T14:31:00;12.70;76.00
19567;DHT22;9930;49.240;8.548;2024-01-30T14:33:25;12.70;75.90
19567;DHT22;9930;49.240;8.548;2024-01-30T14:35:51;12.70;76.00
19567;DHT22;9930;49.240;8.548;2024-01-30T14:38:17;12.70;75.90
19567;DHT22;9930;49.240;8.548;2024-01-30T14:40:44;12.70;75.90
19567;DHT22;9930;49.240;8.548;2024-01-30T14:43:12;12.60;75.70
19567;DHT22;9930;49.240;8.548;2024-01-30T14:45:40;12.60;75.70
19567;DHT22;9930;49.240;8.548;2024-01-30T14:48:12;12.60;75.70
19567;DHT22;9930;49.240;8.548;2024-01-30T14:50:38;12.60;75.70
19567;DHT22;9930;49.240;8.548;2024-01-30T14:53:05;12.50;75.80
19567;DHT22;9930;49.240;8.548;2024-01-30T14:55:31;12.50;75.70
19567;DHT22;9930;49.240;8.548;2024-01-30T14:57:59;12.50;75.70
19567;DHT22;9930;49.240;8.548;2024-01-30T15:00:30;12.50;75.80
19567;DHT22;9930;49.240;8.548;2024-01-30T15:02:58;12.50;75.80
19567;DHT22;9930;49.240;8.548;2024-01-30T15:05:26;12.40;75.70
19567;DHT22;9930;49.240;8.548;2024-01-30T15:07:56;12.40;75.80
19567;DHT22;9930;49.240;8.548;2024-01-30T15:10:22;12.40;75.80
19567;DHT22;9930;49.240;8.548;2024-01-30T15:12:48;12.40;75.90
19567;DHT22;9930;49.240;8.548;2024-01-30T15:15:13;12.30;75.80
19567;DHT22;9930;49.240;8.548;2024-01-30T15:17:41;12.30;75.80
19567;DHT22;9930;49.240;8.548;2024-01-30T15:20:07;12.30;75.80
19567;DHT22;9930;49.240;8.548;2024-01-30T15:22:41;12.30;75.80
19567;DHT22;9930;49.240;8.548;2024-01-30T15:25:08;12.20;75.80
19567;DHT22;9930;49.240;8.548;2024-01-30T15:27:34;12.20;75.80
19567;DHT22;9930;49.240;8.548;2024-01-30T15:29:59;12.20;75.90
19567;DHT22;9930;49.240;8.548;2024-01-30T15:32:25;12.20;75.80
19567;DHT22;9930;49.240;8.548;2024-01-30T15:34:53;12.20;75.90
19567;DHT22;9930;49.240;8.548;2024-01-30T15:37:20;12.10;75.80
19567;DHT22;9930;49.240;8.548;2024-01-30T15:39:45;12.10;75.80
19567;DHT22;9930;49.240;8.548;2024-01-30T15:42:11;12.10;75.80
19567;DHT22;9930;49.240;8.548;2024-01-30T15:44:42;12.10;75.80
19567;DHT22;9930;49.240;8.548;2024-01-30T15:47:10;12.00;75.70
19567;DHT22;9930;49.240;8.548;2024-01-30T15:49:35;12.00;75.80
19567;DHT22;9930;49.240;8.548;2024-01-30T15:52:03;12.00;75.80
19567;DHT22;9930;49.240;8.548;2024-01-30T15:54:40;12.00;75.80
19567;DHT22;9930;49.240;8.548;2024-01-30T15:57:11;12.00;75.80
19567;DHT22;9930;49.240;8.548;2024-01-30T15:59:39;11.90;75.80
19567;DHT22;9930;49.240;8.548;2024-01-30T16:02:08;11.90;75.80
19567;DHT22;9930;49.240;8.548;2024-01-30T16:04:36;11.90;75.80
19567;DHT22;9930;49.240;8.548;2024-01-30T16:07:04;11.80;75.80